createdAt,value
2017-12-24T00:00:06.060Z,8.27
2017-12-24T00:01:06.036Z,8.20
2017-12-24T00:02:06.015Z,8.23
2017-12-24T00:03:05.992Z,8.27
2017-12-24T00:04:05.970Z,8.30
2017-12-24T00:05:05.949Z,8.20
2017-12-24T00:06:05.927Z,8.26
2017-12-24T00:07:05.904Z,8.15
2017-12-24T00:08:05.883Z,8.26
2017-12-24T00:09:05.862Z,8.23
2017-12-24T00:10:05.840Z,8.24
2017-12-24T00:11:05.816Z,8.19
2017-12-24T00:12:05.797Z,8.27
2017-12-24T00:13:05.772Z,8.18
2017-12-24T00:14:05.751Z,8.37
2017-12-24T00:15:05.728Z,8.28
2017-12-24T00:16:05.706Z,8.31
2017-12-24T00:17:05.686Z,8.27
2017-12-24T00:18:05.664Z,8.34
2017-12-24T00:19:05.640Z,8.27
2017-12-24T00:20:05.619Z,8.26
2017-12-24T00:21:05.598Z,8.23
2017-12-24T00:22:06.379Z,8.30
2017-12-24T00:23:05.554Z,8.31
2017-12-24T00:24:05.531Z,8.24
2017-12-24T00:25:05.509Z,8.31
2017-12-24T00:26:05.488Z,8.28
2017-12-24T00:27:05.566Z,8.20
2017-12-24T00:28:05.444Z,8.36
2017-12-24T00:29:05.422Z,8.23
2017-12-24T00:30:05.401Z,8.19
2017-12-24T00:31:05.377Z,8.26
2017-12-24T00:32:05.356Z,8.23
2017-12-24T00:33:05.336Z,8.26
2017-12-24T00:34:05.312Z,8.34
2017-12-24T00:35:05.291Z,8.28
2017-12-24T00:36:05.271Z,8.28
2017-12-24T00:37:05.248Z,8.31
2017-12-24T00:38:05.226Z,8.31
2017-12-24T00:39:05.304Z,8.30
2017-12-24T00:40:05.184Z,8.28
2017-12-24T00:41:05.160Z,8.37
2017-12-24T00:42:05.138Z,8.31
2017-12-24T00:43:05.116Z,8.28
2017-12-24T00:44:05.093Z,8.27
2017-12-24T00:45:05.073Z,8.31
2017-12-24T00:46:05.050Z,8.30
2017-12-24T00:47:05.027Z,8.19
2017-12-24T00:48:05.007Z,8.31
2017-12-24T00:49:05.235Z,8.20
2017-12-24T00:50:04.963Z,8.19
2017-12-24T00:51:04.941Z,8.24
2017-12-24T00:52:04.918Z,8.27
2017-12-24T00:53:04.948Z,8.18
2017-12-24T00:54:04.877Z,8.20
2017-12-24T00:55:04.852Z,8.23
2017-12-24T00:56:04.830Z,8.24
2017-12-24T00:57:04.810Z,8.20
2017-12-24T00:58:04.789Z,8.27
2017-12-24T00:59:04.766Z,8.26
2017-12-24T01:00:04.743Z,8.23
2017-12-24T01:01:04.722Z,8.19
2017-12-24T01:02:04.700Z,8.30
2017-12-24T01:03:04.677Z,8.19
2017-12-24T01:04:04.656Z,8.23
2017-12-24T01:05:04.633Z,8.15
2017-12-24T01:06:04.615Z,8.20
2017-12-24T01:07:04.590Z,8.19
2017-12-24T01:08:04.568Z,8.15
2017-12-24T01:09:04.545Z,8.13
2017-12-24T01:10:04.525Z,8.19
2017-12-24T01:11:04.502Z,8.18
2017-12-24T01:12:04.480Z,8.06
2017-12-24T01:13:04.457Z,8.06
2017-12-24T01:14:04.437Z,8.08
2017-12-24T01:15:04.412Z,8.09
2017-12-24T01:16:04.391Z,8.06
2017-12-24T01:17:04.368Z,8.06
2017-12-24T01:18:04.347Z,8.08
2017-12-24T01:19:04.324Z,8.05
2017-12-24T01:20:04.303Z,8.12
2017-12-24T01:21:04.281Z,8.06
2017-12-24T01:22:04.260Z,8.06
2017-12-24T01:23:04.236Z,8.05
2017-12-24T01:24:04.214Z,8.09
2017-12-24T01:25:04.193Z,8.06
2017-12-24T01:26:04.171Z,8.09
2017-12-24T01:27:04.148Z,8.15
2017-12-24T01:28:04.128Z,8.08
2017-12-24T01:29:04.103Z,8.08
2017-12-24T01:30:04.082Z,8.06
2017-12-24T01:31:04.059Z,8.10
2017-12-24T01:32:04.042Z,8.08
2017-12-24T01:33:10.282Z,8.10
2017-12-24T01:34:03.994Z,8.10
2017-12-24T01:35:03.972Z,8.09
2017-12-24T01:36:03.949Z,8.09
2017-12-24T01:37:03.927Z,8.12
2017-12-24T01:38:03.905Z,8.09
2017-12-24T01:39:03.883Z,8.12
2017-12-24T01:40:03.861Z,8.08
2017-12-24T01:41:03.839Z,8.08
2017-12-24T01:42:03.817Z,8.08
2017-12-24T01:43:03.795Z,8.06
2017-12-24T01:44:03.777Z,8.06
2017-12-24T01:45:03.751Z,7.95
2017-12-24T01:46:03.730Z,8.01
2017-12-24T01:47:03.706Z,8.01
2017-12-24T01:48:03.685Z,8.00
2017-12-24T01:49:03.664Z,7.98
2017-12-24T01:50:03.642Z,8.01
2017-12-24T01:51:03.621Z,8.00
2017-12-24T01:52:03.697Z,7.98
2017-12-24T01:53:03.577Z,8.01
2017-12-24T01:54:03.552Z,8.01
2017-12-24T01:55:03.530Z,8.03
2017-12-24T01:56:03.508Z,7.97
2017-12-24T01:57:03.486Z,7.97
2017-12-24T01:58:03.464Z,7.98
2017-12-24T01:59:03.442Z,7.93
2017-12-24T02:00:03.425Z,7.91
2017-12-24T02:01:03.405Z,7.94
2017-12-24T02:02:03.376Z,7.93
2017-12-24T02:03:03.353Z,7.88
2017-12-24T02:04:03.330Z,7.83
2017-12-24T02:05:03.310Z,7.90
2017-12-24T02:06:03.287Z,7.79
2017-12-24T02:07:03.263Z,7.80
2017-12-24T02:08:03.391Z,7.85
2017-12-24T02:09:03.218Z,7.80
2017-12-24T02:10:03.197Z,7.82
2017-12-24T02:11:03.174Z,7.80
2017-12-24T02:12:03.151Z,7.82
2017-12-24T02:13:03.128Z,7.76
2017-12-24T02:14:03.108Z,7.75
2017-12-24T02:15:03.085Z,7.67
2017-12-24T02:16:03.063Z,7.72
2017-12-24T02:17:03.041Z,7.72
2017-12-24T02:18:03.018Z,7.70
2017-12-24T02:19:02.995Z,7.73
2017-12-24T02:20:02.972Z,7.75
2017-12-24T02:21:02.951Z,7.73
2017-12-24T02:22:02.930Z,7.73
2017-12-24T02:23:02.906Z,7.67
2017-12-24T02:24:02.884Z,7.72
2017-12-24T02:25:02.860Z,7.61
2017-12-24T02:26:02.838Z,7.76
2017-12-24T02:27:02.815Z,7.76
2017-12-24T02:28:02.793Z,7.60
2017-12-24T02:29:02.772Z,7.63
2017-12-24T02:30:02.757Z,7.58
2017-12-24T02:31:02.729Z,7.63
2017-12-24T02:32:02.704Z,7.73
2017-12-24T02:33:02.682Z,7.67
2017-12-24T02:34:02.659Z,7.61
2017-12-24T02:35:02.638Z,7.61
2017-12-24T02:36:02.616Z,7.69
2017-12-24T02:37:02.596Z,7.60
2017-12-24T02:38:02.573Z,7.58
2017-12-24T02:39:02.551Z,7.69
2017-12-24T02:40:02.524Z,7.60
2017-12-24T02:41:02.501Z,7.67
2017-12-24T02:42:02.478Z,7.63
2017-12-24T02:43:02.456Z,7.60
2017-12-24T02:44:02.433Z,7.63
2017-12-24T02:45:02.413Z,7.61
2017-12-24T02:46:02.389Z,7.69
2017-12-24T02:47:02.366Z,7.57
2017-12-24T02:48:02.343Z,7.56
2017-12-24T02:49:02.323Z,7.56
2017-12-24T02:50:02.301Z,7.54
2017-12-24T02:51:02.277Z,7.53
2017-12-24T02:52:02.255Z,7.54
2017-12-24T02:53:02.233Z,7.51
2017-12-24T02:54:02.212Z,7.56
2017-12-24T02:55:02.186Z,7.57
2017-12-24T02:56:02.165Z,7.60
2017-12-24T02:57:02.143Z,7.50
2017-12-24T02:58:02.119Z,7.47
2017-12-24T02:59:02.096Z,7.57
2017-12-24T03:00:02.075Z,7.51
2017-12-24T03:01:02.053Z,7.48
2017-12-24T03:02:02.030Z,7.54
2017-12-24T03:03:02.007Z,7.54
2017-12-24T03:04:01.984Z,7.54
2017-12-24T03:05:01.962Z,7.60
2017-12-24T03:06:02.090Z,7.47
2017-12-24T03:07:01.917Z,7.60
2017-12-24T03:08:01.894Z,7.48
2017-12-24T03:09:01.872Z,7.51
2017-12-24T03:10:01.851Z,7.54
2017-12-24T03:11:01.826Z,7.57
2017-12-24T03:12:01.804Z,7.56
2017-12-24T03:13:01.783Z,7.53
2017-12-24T03:14:01.760Z,7.61
2017-12-24T03:15:01.737Z,7.56
2017-12-24T03:16:01.714Z,7.54
2017-12-24T03:17:01.694Z,7.56
2017-12-24T03:18:01.671Z,7.54
2017-12-24T03:19:01.646Z,7.60
2017-12-24T03:20:01.624Z,7.57
2017-12-24T03:21:01.602Z,7.53
2017-12-24T03:22:01.581Z,7.56
2017-12-24T03:23:01.557Z,7.54
2017-12-24T03:24:01.536Z,7.54
2017-12-24T03:25:01.513Z,7.53
2017-12-24T03:26:01.491Z,7.54
2017-12-24T03:27:01.467Z,7.57
2017-12-24T03:28:01.445Z,7.53
2017-12-24T03:29:01.424Z,7.57
2017-12-24T03:30:01.401Z,7.51
2017-12-24T03:31:01.377Z,7.53
2017-12-24T03:32:01.354Z,7.54
2017-12-24T03:33:01.333Z,7.54
2017-12-24T03:34:01.313Z,7.54
2017-12-24T03:35:01.289Z,7.54
2017-12-24T03:36:01.265Z,7.56
2017-12-24T03:37:01.242Z,7.56
2017-12-24T03:38:01.370Z,7.54
2017-12-24T03:39:01.197Z,7.57
2017-12-24T03:40:01.175Z,7.53
2017-12-24T03:41:01.152Z,7.47
2017-12-24T03:42:01.132Z,7.57
2017-12-24T03:43:01.107Z,7.53
2017-12-24T03:44:01.085Z,7.54
2017-12-24T03:45:01.063Z,7.53
2017-12-24T03:46:01.042Z,7.51
2017-12-24T03:47:01.016Z,7.53
2017-12-24T03:48:00.994Z,7.54
2017-12-24T03:49:00.972Z,7.57
2017-12-24T03:50:00.950Z,7.47
2017-12-24T03:51:00.927Z,7.48
2017-12-24T03:52:00.904Z,7.48
2017-12-24T03:53:00.884Z,7.48
2017-12-24T03:54:00.859Z,7.53
2017-12-24T03:55:00.836Z,7.56
2017-12-24T03:56:00.814Z,7.58
2017-12-24T03:57:00.793Z,7.47
2017-12-24T03:58:01.021Z,7.54
2017-12-24T03:59:00.746Z,7.54
2017-12-24T04:00:00.725Z,7.57
2017-12-24T04:01:00.705Z,7.60
2017-12-24T04:02:00.682Z,7.56
2017-12-24T04:03:00.657Z,7.58
2017-12-24T04:04:00.635Z,7.51
2017-12-24T04:05:00.613Z,7.60
2017-12-24T04:06:00.590Z,7.48
2017-12-24T04:07:00.568Z,7.61
2017-12-24T04:08:00.545Z,7.57
2017-12-24T04:09:00.523Z,7.61
2017-12-24T04:10:00.500Z,7.51
2017-12-24T04:11:00.477Z,7.48
2017-12-24T04:12:00.454Z,7.53
2017-12-24T04:13:00.431Z,7.66
2017-12-24T04:14:00.409Z,7.58
2017-12-24T04:15:00.386Z,7.57
2017-12-24T04:16:00.365Z,7.56
2017-12-24T04:17:00.341Z,7.60
2017-12-24T04:18:00.320Z,7.67
2017-12-24T04:19:00.296Z,7.63
2017-12-24T04:20:00.282Z,7.63
2017-12-24T04:21:00.252Z,7.63
2017-12-24T04:22:00.229Z,7.69
2017-12-24T04:23:00.205Z,7.57
2017-12-24T04:24:00.182Z,7.69
2017-12-24T04:25:00.160Z,7.61
2017-12-24T04:26:00.138Z,7.61
2017-12-24T04:27:00.115Z,7.72
2017-12-24T04:28:00.092Z,7.61
2017-12-24T04:29:00.070Z,7.67
2017-12-24T04:30:00.051Z,7.57
2017-12-24T04:31:00.025Z,7.60
2017-12-24T04:32:00.006Z,7.60
2017-12-24T04:32:59.980Z,7.72
2017-12-24T04:34:00.208Z,7.61
2017-12-24T04:34:59.933Z,7.57
2017-12-24T04:35:59.911Z,7.60
2017-12-24T04:36:59.889Z,7.63
2017-12-24T04:37:59.867Z,7.69
2017-12-24T04:38:59.844Z,7.61
2017-12-24T04:39:59.820Z,7.69
2017-12-24T04:40:59.799Z,7.77
2017-12-24T04:41:59.777Z,7.61
2017-12-24T04:42:59.753Z,7.77
2017-12-24T04:43:59.731Z,7.57
2017-12-24T04:44:59.708Z,7.77
2017-12-24T04:45:59.694Z,7.67
2017-12-24T04:46:59.662Z,7.72
2017-12-24T04:47:59.640Z,7.67
2017-12-24T04:49:00.169Z,7.72
2017-12-24T04:49:59.596Z,7.57
2017-12-24T04:50:59.572Z,7.76
2017-12-24T04:51:59.550Z,7.70
2017-12-24T04:52:59.530Z,7.75
2017-12-24T04:53:59.505Z,7.67
2017-12-24T04:54:59.482Z,7.70
2017-12-24T04:55:59.463Z,7.58
2017-12-24T04:56:59.438Z,7.72
2017-12-24T04:57:59.415Z,7.76
2017-12-24T04:58:59.642Z,7.75
2017-12-24T04:59:59.371Z,7.69
2017-12-24T05:00:59.349Z,7.75
2017-12-24T05:01:59.326Z,7.57
2017-12-24T05:02:59.304Z,7.73
2017-12-24T05:03:59.381Z,7.72
2017-12-24T05:04:59.257Z,7.77
2017-12-24T05:05:59.235Z,7.60
2017-12-24T05:06:59.212Z,7.66
2017-12-24T05:07:59.190Z,7.76
2017-12-24T05:08:59.167Z,7.73
2017-12-24T05:09:59.144Z,7.72
2017-12-24T05:10:59.122Z,7.73
2017-12-24T05:11:59.099Z,7.67
2017-12-24T05:12:59.076Z,7.61
2017-12-24T05:13:59.054Z,7.58
2017-12-24T05:14:59.032Z,7.61
2017-12-24T05:15:59.009Z,7.77
2017-12-24T05:16:58.986Z,7.73
2017-12-24T05:17:58.966Z,7.61
2017-12-24T05:18:58.942Z,7.75
2017-12-24T05:19:58.919Z,7.76
2017-12-24T05:20:58.895Z,7.75
2017-12-24T05:21:58.875Z,7.61
2017-12-24T05:22:58.853Z,7.56
2017-12-24T05:23:58.828Z,7.60
2017-12-24T05:24:58.805Z,7.73
2017-12-24T05:25:58.783Z,7.75
2017-12-24T05:26:58.760Z,7.66
2017-12-24T05:27:58.838Z,7.73
2017-12-24T05:28:58.717Z,7.57
2017-12-24T05:29:58.693Z,7.76
2017-12-24T05:30:58.669Z,7.72
2017-12-24T05:31:58.647Z,7.73
2017-12-24T05:32:58.776Z,7.77
2017-12-24T05:33:58.609Z,7.58
2017-12-24T05:34:58.579Z,7.72
2017-12-24T05:35:58.601Z,7.69
2017-12-24T05:36:58.534Z,7.69
2017-12-24T05:37:58.513Z,7.60
2017-12-24T05:38:58.488Z,7.61
2017-12-24T05:39:58.468Z,7.70
2017-12-24T05:40:58.444Z,7.66
2017-12-24T05:41:58.422Z,7.66
2017-12-24T05:42:58.400Z,7.66
2017-12-24T05:43:58.376Z,7.58
2017-12-24T05:44:58.354Z,7.76
2017-12-24T05:45:58.331Z,7.75
2017-12-24T05:46:58.308Z,7.73
2017-12-24T05:47:58.287Z,7.63
2017-12-24T05:48:58.263Z,7.56
2017-12-24T05:49:58.241Z,7.61
2017-12-24T05:50:58.219Z,7.61
2017-12-24T05:51:58.196Z,7.76
2017-12-24T05:52:58.174Z,7.63
2017-12-24T05:53:58.151Z,7.58
2017-12-24T05:54:58.130Z,7.60
2017-12-24T05:55:58.106Z,7.76
2017-12-24T05:56:58.083Z,7.79
2017-12-24T05:57:58.061Z,7.70
2017-12-24T05:58:58.037Z,7.72
2017-12-24T05:59:58.169Z,7.61
2017-12-24T06:00:57.992Z,7.75
2017-12-24T06:01:57.971Z,7.75
2017-12-24T06:02:57.947Z,7.61
2017-12-24T06:03:57.925Z,7.63
2017-12-24T06:04:58.052Z,7.58
2017-12-24T06:05:57.879Z,7.57
2017-12-24T06:06:57.857Z,7.72
2017-12-24T06:07:57.835Z,7.72
2017-12-24T06:08:57.812Z,7.61
2017-12-24T06:09:57.939Z,7.72
2017-12-24T06:10:57.768Z,7.72
2017-12-24T06:11:57.742Z,7.61
2017-12-24T06:12:57.721Z,7.67
2017-12-24T06:13:57.699Z,7.72
2017-12-24T06:14:57.776Z,7.66
2017-12-24T06:15:57.653Z,7.67
2017-12-24T06:16:57.631Z,7.67
2017-12-24T06:17:57.609Z,7.63
2017-12-24T06:18:57.585Z,7.63
2017-12-24T06:19:57.562Z,7.57
2017-12-24T06:20:57.543Z,7.76
2017-12-24T06:21:57.620Z,7.63
2017-12-24T06:22:57.495Z,7.67
2017-12-24T06:23:57.472Z,7.67
2017-12-24T06:24:57.449Z,7.66
2017-12-24T06:25:57.427Z,7.63
2017-12-24T06:26:57.505Z,7.60
2017-12-24T06:27:57.382Z,7.66
2017-12-24T06:28:57.360Z,7.63
2017-12-24T06:29:57.337Z,7.56
2017-12-24T06:30:57.314Z,7.70
2017-12-24T06:31:57.542Z,7.69
2017-12-24T06:32:57.270Z,7.60
2017-12-24T06:33:57.248Z,7.61
2017-12-24T06:34:57.224Z,7.60
2017-12-24T06:35:57.202Z,7.67
2017-12-24T06:36:57.178Z,7.56
2017-12-24T06:37:57.158Z,7.63
2017-12-24T06:38:57.135Z,7.66
2017-12-24T06:39:57.112Z,7.61
2017-12-24T06:40:57.089Z,7.60
2017-12-24T06:41:57.068Z,7.63
2017-12-24T06:42:57.044Z,7.63
2017-12-24T06:43:57.021Z,7.79
2017-12-24T06:44:56.999Z,7.72
2017-12-24T06:45:56.976Z,7.58
2017-12-24T06:46:56.953Z,7.63
2017-12-24T06:47:56.930Z,7.69
2017-12-24T06:48:56.909Z,7.61
2017-12-24T06:49:56.887Z,7.60
2017-12-24T06:50:56.863Z,7.70
2017-12-24T06:51:56.841Z,7.67
2017-12-24T06:52:56.818Z,7.70
2017-12-24T06:53:56.796Z,7.63
2017-12-24T06:54:56.774Z,7.70
2017-12-24T06:55:56.751Z,7.63
2017-12-24T06:56:56.730Z,7.63
2017-12-24T06:57:56.707Z,7.57
2017-12-24T06:58:56.684Z,7.70
2017-12-24T06:59:56.661Z,7.70
2017-12-24T07:00:56.638Z,7.72
2017-12-24T07:01:56.616Z,7.60
2017-12-24T07:02:56.592Z,7.69
2017-12-24T07:03:56.571Z,7.73
2017-12-24T07:04:56.549Z,7.57
2017-12-24T07:05:56.527Z,7.63
2017-12-24T07:06:56.502Z,7.61
2017-12-24T07:07:56.481Z,7.58
2017-12-24T07:08:56.458Z,7.70
2017-12-24T07:09:56.436Z,7.72
2017-12-24T07:10:56.413Z,7.67
2017-12-24T07:11:57.191Z,7.73
2017-12-24T07:12:56.368Z,7.72
2017-12-24T07:13:56.345Z,7.72
2017-12-24T07:14:56.323Z,7.73
2017-12-24T07:15:56.299Z,7.60
2017-12-24T07:16:56.277Z,7.69
2017-12-24T07:17:56.255Z,7.73
2017-12-24T07:18:56.232Z,7.60
2017-12-24T07:19:56.211Z,7.73
2017-12-24T07:20:56.189Z,7.61
2017-12-24T07:21:56.166Z,7.72
2017-12-24T07:22:56.142Z,7.72
2017-12-24T07:23:56.123Z,7.72
2017-12-24T07:24:56.099Z,7.76
2017-12-24T07:25:56.096Z,7.72
2017-12-24T07:26:56.053Z,7.72
2017-12-24T07:27:56.031Z,7.73
2017-12-24T07:28:56.008Z,7.76
2017-12-24T07:29:55.985Z,7.67
2017-12-24T07:30:55.962Z,7.73
2017-12-24T07:31:56.040Z,7.76
2017-12-24T07:32:55.919Z,7.58
2017-12-24T07:33:55.896Z,7.70
2017-12-24T07:34:55.874Z,7.61
2017-12-24T07:35:55.851Z,7.66
2017-12-24T07:36:55.828Z,7.66
2017-12-24T07:37:56.056Z,7.73
2017-12-24T07:38:55.784Z,7.75
2017-12-24T07:39:55.761Z,7.76
2017-12-24T07:40:55.738Z,7.77
2017-12-24T07:41:55.716Z,7.75
2017-12-24T07:42:55.794Z,7.72
2017-12-24T07:43:55.672Z,7.77
2017-12-24T07:44:55.649Z,7.66
2017-12-24T07:45:55.628Z,7.75
2017-12-24T07:46:55.603Z,7.73
2017-12-24T07:47:55.830Z,7.75
2017-12-24T07:48:55.561Z,7.73
2017-12-24T07:49:55.537Z,7.75
2017-12-24T07:50:55.513Z,7.76
2017-12-24T07:51:55.493Z,7.70
2017-12-24T07:52:55.470Z,7.61
2017-12-24T07:53:55.447Z,7.72
2017-12-24T07:54:55.425Z,7.72
2017-12-24T07:55:55.402Z,7.67
2017-12-24T07:56:55.379Z,7.58
2017-12-24T07:57:55.358Z,7.79
2017-12-24T07:58:55.335Z,7.61
2017-12-24T07:59:55.311Z,7.72
2017-12-24T08:00:55.289Z,7.76
2017-12-24T08:01:55.267Z,7.67
2017-12-24T08:02:55.260Z,7.72
2017-12-24T08:03:55.222Z,7.75
2017-12-24T08:04:55.200Z,7.73
2017-12-24T08:05:55.178Z,7.72
2017-12-24T08:06:55.163Z,7.75
2017-12-24T08:07:55.133Z,7.79
2017-12-24T08:08:55.109Z,7.70
2017-12-24T08:09:55.088Z,7.67
2017-12-24T08:10:55.064Z,7.72
2017-12-24T08:11:55.042Z,7.72
2017-12-24T08:12:55.020Z,7.75
2017-12-24T08:13:54.997Z,7.76
2017-12-24T08:14:54.976Z,7.72
2017-12-24T08:15:54.952Z,7.69
2017-12-24T08:16:54.929Z,7.72
2017-12-24T08:17:55.057Z,7.82
2017-12-24T08:18:54.885Z,7.75
2017-12-24T08:19:54.872Z,7.73
2017-12-24T08:20:54.840Z,7.77
2017-12-24T08:21:54.819Z,7.75
2017-12-24T08:22:54.795Z,7.73
2017-12-24T08:23:54.922Z,7.77
2017-12-24T08:24:54.752Z,7.72
2017-12-24T08:25:54.728Z,7.75
2017-12-24T08:26:54.704Z,7.75
2017-12-24T08:27:54.682Z,7.67
2017-12-24T08:28:54.660Z,7.70
2017-12-24T08:29:54.638Z,7.72
2017-12-24T08:30:54.615Z,7.70
2017-12-24T08:31:54.592Z,7.70
2017-12-24T08:32:54.570Z,7.73
2017-12-24T08:33:54.549Z,7.70
2017-12-24T08:34:54.525Z,7.72
2017-12-24T08:35:54.502Z,7.76
2017-12-24T08:36:54.481Z,7.73
2017-12-24T08:37:54.458Z,7.77
2017-12-24T08:38:54.535Z,7.76
2017-12-24T08:39:54.413Z,7.75
2017-12-24T08:40:54.392Z,7.75
2017-12-24T08:41:54.370Z,7.67
2017-12-24T08:42:54.347Z,7.77
2017-12-24T08:43:54.324Z,7.77
2017-12-24T08:44:54.301Z,7.61
2017-12-24T08:45:54.429Z,7.79
2017-12-24T08:46:54.256Z,7.75
2017-12-24T08:47:54.234Z,7.80
2017-12-24T08:48:54.213Z,7.69
2017-12-24T08:49:54.191Z,7.76
2017-12-24T08:50:54.166Z,7.73
2017-12-24T08:51:54.148Z,7.73
2017-12-24T08:52:54.123Z,7.72
2017-12-24T08:53:54.101Z,7.69
2017-12-24T08:54:54.077Z,7.70
2017-12-24T08:55:54.055Z,7.63
2017-12-24T08:56:54.033Z,7.69
2017-12-24T08:57:54.011Z,7.76
2017-12-24T08:58:53.987Z,7.72
2017-12-24T08:59:53.966Z,7.72
2017-12-24T09:00:53.942Z,7.75
2017-12-24T09:01:53.921Z,7.69
2017-12-24T09:02:53.898Z,7.76
2017-12-24T09:03:53.876Z,7.73
2017-12-24T09:04:53.854Z,7.72
2017-12-24T09:05:53.831Z,7.76
2017-12-24T09:06:53.809Z,7.75
2017-12-24T09:07:53.787Z,7.79
2017-12-24T09:08:53.772Z,7.72
2017-12-24T09:09:53.742Z,7.77
2017-12-24T09:10:53.720Z,7.73
2017-12-24T09:11:53.698Z,7.75
2017-12-24T09:12:53.676Z,7.70
2017-12-24T09:13:53.653Z,7.80
2017-12-24T09:14:53.633Z,7.70
2017-12-24T09:15:53.609Z,7.77
2017-12-24T09:16:53.587Z,7.77
2017-12-24T09:17:53.569Z,7.72
2017-12-24T09:18:53.541Z,7.72
2017-12-24T09:19:53.619Z,7.69
2017-12-24T09:20:53.498Z,7.70
2017-12-24T09:21:53.478Z,7.70
2017-12-24T09:22:53.453Z,7.70
2017-12-24T09:23:53.432Z,7.73
2017-12-24T09:24:53.410Z,7.73
2017-12-24T09:25:53.388Z,7.80
2017-12-24T09:26:53.364Z,7.75
2017-12-24T09:27:53.345Z,7.79
2017-12-24T09:28:53.323Z,7.72
2017-12-24T09:29:53.600Z,7.69
2017-12-24T09:30:53.275Z,7.72
2017-12-24T09:31:53.254Z,7.77
2017-12-24T09:32:53.234Z,7.72
2017-12-24T09:33:53.210Z,7.67
2017-12-24T09:34:53.188Z,7.70
2017-12-24T09:35:53.414Z,7.70
2017-12-24T09:36:53.143Z,7.72
2017-12-24T09:37:53.122Z,7.75
2017-12-24T09:38:53.097Z,7.76
2017-12-24T09:39:53.076Z,7.67
2017-12-24T09:40:53.055Z,7.79
2017-12-24T09:41:53.032Z,7.67
2017-12-24T09:42:53.010Z,7.70
2017-12-24T09:43:52.988Z,7.73
2017-12-24T09:44:52.966Z,7.67
2017-12-24T09:45:53.193Z,7.72
2017-12-24T09:46:52.920Z,7.72
2017-12-24T09:47:52.899Z,7.73
2017-12-24T09:48:52.877Z,7.72
2017-12-24T09:49:52.854Z,7.70
2017-12-24T09:50:52.832Z,7.73
2017-12-24T09:51:52.809Z,7.67
2017-12-24T09:52:52.789Z,7.73
2017-12-24T09:53:52.765Z,7.73
2017-12-24T09:54:52.742Z,7.73
2017-12-24T09:55:52.719Z,7.77
2017-12-24T09:56:52.699Z,7.77
2017-12-24T09:57:52.680Z,7.76
2017-12-24T09:58:52.654Z,7.63
2017-12-24T09:59:52.633Z,7.72
2017-12-24T10:00:52.609Z,7.76
2017-12-24T10:01:52.588Z,7.76
2017-12-24T10:02:52.565Z,7.58
2017-12-24T10:03:52.542Z,7.75
2017-12-24T10:04:52.520Z,7.63
2017-12-24T10:05:52.497Z,7.58
2017-12-24T10:06:52.474Z,7.58
2017-12-24T10:07:52.452Z,7.63
2017-12-24T10:08:52.431Z,7.66
2017-12-24T10:09:52.408Z,7.60
2017-12-24T10:10:52.385Z,7.61
2017-12-24T10:11:52.362Z,7.63
2017-12-24T10:12:52.341Z,7.57
2017-12-24T10:13:52.319Z,7.63
2017-12-24T10:14:52.294Z,7.69
2017-12-24T10:15:52.272Z,7.66
2017-12-24T10:16:52.250Z,7.61
2017-12-24T10:17:52.228Z,7.66
2017-12-24T10:18:52.204Z,7.57
2017-12-24T10:19:52.183Z,7.66
2017-12-24T10:20:52.161Z,7.69
2017-12-24T10:21:52.140Z,7.60
2017-12-24T10:22:52.269Z,7.67
2017-12-24T10:23:52.094Z,7.61
2017-12-24T10:24:52.072Z,7.56
2017-12-24T10:25:52.050Z,7.61
2017-12-24T10:26:52.025Z,7.57
2017-12-24T10:27:52.005Z,7.57
2017-12-24T10:28:51.980Z,7.60
2017-12-24T10:29:51.959Z,7.56
2017-12-24T10:30:51.936Z,7.60
2017-12-24T10:31:51.914Z,7.58
2017-12-24T10:32:51.891Z,7.57
2017-12-24T10:33:51.870Z,7.60
2017-12-24T10:34:51.847Z,7.53
2017-12-24T10:35:51.824Z,7.48
2017-12-24T10:36:51.808Z,7.45
2017-12-24T10:37:51.779Z,7.56
2017-12-24T10:38:51.755Z,7.53
2017-12-24T10:39:51.733Z,7.47
2017-12-24T10:40:51.710Z,7.53
2017-12-24T10:41:51.689Z,7.47
2017-12-24T10:42:51.664Z,7.47
2017-12-24T10:43:51.643Z,7.54
2017-12-24T10:44:51.620Z,7.53
2017-12-24T10:45:51.599Z,7.60
2017-12-24T10:46:51.576Z,7.54
2017-12-24T10:47:51.553Z,7.57
2017-12-24T10:48:51.530Z,7.54
2017-12-24T10:49:52.608Z,7.54
2017-12-24T10:50:51.483Z,7.56
2017-12-24T10:51:51.462Z,7.53
2017-12-24T10:52:51.439Z,7.53
2017-12-24T10:53:51.418Z,7.51
2017-12-24T10:54:51.395Z,7.54
2017-12-24T10:55:51.376Z,7.51
2017-12-24T10:56:51.350Z,7.53
2017-12-24T10:57:51.327Z,7.53
2017-12-24T10:58:51.303Z,7.53
2017-12-24T10:59:51.531Z,7.53
2017-12-24T11:00:51.259Z,7.48
2017-12-24T11:01:51.287Z,7.51
2017-12-24T11:02:51.214Z,7.47
2017-12-24T11:03:51.193Z,7.56
2017-12-24T11:04:51.418Z,7.54
2017-12-24T11:05:51.146Z,7.48
2017-12-24T11:06:51.122Z,7.51
2017-12-24T11:07:51.101Z,7.54
2017-12-24T11:08:51.077Z,7.56
2017-12-24T11:09:51.056Z,7.53
2017-12-24T11:10:51.039Z,7.48
2017-12-24T11:11:51.010Z,7.57
2017-12-24T11:12:50.986Z,7.48
2017-12-24T11:13:50.964Z,7.53
2017-12-24T11:14:51.091Z,7.51
2017-12-24T11:15:50.919Z,7.53
2017-12-24T11:16:50.897Z,7.56
2017-12-24T11:17:50.875Z,7.51
2017-12-24T11:18:50.851Z,7.57
2017-12-24T11:19:50.828Z,7.50
2017-12-24T11:20:50.807Z,7.51
2017-12-24T11:21:50.784Z,7.53
2017-12-24T11:22:50.760Z,7.51
2017-12-24T11:23:50.739Z,7.56
2017-12-24T11:24:50.716Z,7.51
2017-12-24T11:25:50.693Z,7.53
2017-12-24T11:26:50.670Z,7.51
2017-12-24T11:27:50.647Z,7.54
2017-12-24T11:28:50.626Z,7.56
2017-12-24T11:29:50.603Z,7.51
2017-12-24T11:30:50.579Z,7.53
2017-12-24T11:31:50.557Z,7.51
2017-12-24T11:32:50.534Z,7.56
2017-12-24T11:33:50.513Z,7.53
2017-12-24T11:34:50.490Z,7.48
2017-12-24T11:35:50.468Z,7.47
2017-12-24T11:36:50.445Z,7.58
2017-12-24T11:37:50.423Z,7.47
2017-12-24T11:38:50.399Z,7.51
2017-12-24T11:39:50.376Z,7.58
2017-12-24T11:40:50.355Z,7.51
2017-12-24T11:41:50.333Z,7.54
2017-12-24T11:42:50.309Z,7.51
2017-12-24T11:43:50.286Z,7.51
2017-12-24T11:44:50.264Z,7.51
2017-12-24T11:45:50.242Z,7.53
2017-12-24T11:46:50.219Z,7.57
2017-12-24T11:47:50.196Z,7.56
2017-12-24T11:48:50.174Z,7.58
2017-12-24T11:49:50.153Z,7.56
2017-12-24T11:50:50.129Z,7.48
2017-12-24T11:51:50.108Z,7.57
2017-12-24T11:52:50.085Z,7.48
2017-12-24T11:53:50.062Z,7.48
2017-12-24T11:54:50.038Z,7.58
2017-12-24T11:55:50.016Z,7.56
2017-12-24T11:56:49.995Z,7.47
2017-12-24T11:57:49.971Z,7.58
2017-12-24T11:58:49.950Z,7.56
2017-12-24T11:59:49.926Z,7.56
2017-12-24T12:00:50.054Z,7.56
2017-12-24T12:01:49.882Z,7.53
2017-12-24T12:02:49.859Z,7.63
2017-12-24T12:03:49.835Z,7.51
2017-12-24T12:04:49.814Z,7.53
2017-12-24T12:05:49.792Z,7.56
2017-12-24T12:06:49.767Z,7.57
2017-12-24T12:07:49.751Z,7.50
2017-12-24T12:08:49.724Z,7.54
2017-12-24T12:09:49.702Z,7.57
2017-12-24T12:10:49.682Z,7.47
2017-12-24T12:11:49.656Z,7.54
2017-12-24T12:12:49.634Z,7.47
2017-12-24T12:13:49.611Z,7.50
2017-12-24T12:14:49.689Z,7.58
2017-12-24T12:15:49.565Z,7.63
2017-12-24T12:16:49.597Z,7.61
2017-12-24T12:17:49.522Z,7.63
2017-12-24T12:18:49.499Z,7.61
2017-12-24T12:19:49.475Z,7.57
2017-12-24T12:20:49.456Z,7.61
2017-12-24T12:21:49.430Z,7.69
2017-12-24T12:22:49.407Z,7.61
2017-12-24T12:23:49.384Z,7.60
2017-12-24T12:24:49.363Z,7.63
2017-12-24T12:25:49.341Z,7.61
2017-12-24T12:26:49.316Z,7.63
2017-12-24T12:27:49.294Z,7.56
2017-12-24T12:28:49.271Z,7.63
2017-12-24T12:29:49.499Z,7.63
2017-12-24T12:30:49.226Z,7.63
2017-12-24T12:31:49.205Z,7.66
2017-12-24T12:32:49.183Z,7.61
2017-12-24T12:33:49.160Z,7.61
2017-12-24T12:34:49.137Z,7.69
2017-12-24T12:35:49.114Z,7.61
2017-12-24T12:36:49.092Z,7.60
2017-12-24T12:37:49.075Z,7.63
2017-12-24T12:38:49.046Z,7.63
2017-12-24T12:39:49.024Z,7.63
2017-12-24T12:40:49.003Z,7.66
2017-12-24T12:41:48.981Z,7.69
2017-12-24T12:42:48.959Z,7.63
2017-12-24T12:43:48.935Z,7.60
2017-12-24T12:44:48.912Z,7.61
2017-12-24T12:45:48.891Z,7.63
2017-12-24T12:46:48.867Z,7.69
2017-12-24T12:47:48.844Z,7.58
2017-12-24T12:48:48.823Z,7.58
2017-12-24T12:49:48.800Z,7.66
2017-12-24T12:50:48.877Z,7.61
2017-12-24T12:51:48.755Z,7.57
2017-12-24T12:52:48.732Z,7.50
2017-12-24T12:53:48.709Z,7.61
2017-12-24T12:54:48.686Z,7.56
2017-12-24T12:55:48.664Z,7.61
2017-12-24T12:56:48.641Z,7.61
2017-12-24T12:57:48.620Z,7.66
2017-12-24T12:58:48.597Z,7.61
2017-12-24T12:59:48.573Z,7.57
2017-12-24T13:00:48.553Z,7.67
2017-12-24T13:01:48.530Z,7.67
2017-12-24T13:02:48.505Z,7.70
2017-12-24T13:03:48.485Z,7.60
2017-12-24T13:04:48.460Z,7.48
2017-12-24T13:05:48.438Z,7.60
2017-12-24T13:06:48.416Z,7.54
2017-12-24T13:07:48.393Z,7.48
2017-12-24T13:08:48.378Z,7.54
2017-12-24T13:09:48.350Z,7.50
2017-12-24T13:10:48.325Z,7.54
2017-12-24T13:11:48.305Z,7.48
2017-12-24T13:12:48.531Z,7.50
2017-12-24T13:13:48.257Z,7.53
2017-12-24T13:14:48.235Z,7.57
2017-12-24T13:15:48.212Z,7.60
2017-12-24T13:16:48.190Z,7.50
2017-12-24T13:17:48.169Z,7.57